createdAt,value
2022-10-17T00:00:03.225Z,19.29
2022-10-17T00:01:03.304Z,19.40
2022-10-17T00:02:03.291Z,19.40
2022-10-17T00:03:03.325Z,19.31
2022-10-17T00:04:03.357Z,19.40
2022-10-17T00:05:03.394Z,19.29
2022-10-17T00:06:03.427Z,19.31
2022-10-17T00:07:03.457Z,19.31
2022-10-17T00:08:03.491Z,19.31
2022-10-17T00:09:03.526Z,19.31
2022-10-17T00:10:03.559Z,19.31
2022-10-17T00:11:03.593Z,19.29
2022-10-17T00:12:03.650Z,19.40
2022-10-17T00:13:03.659Z,19.21
2022-10-17T00:14:03.696Z,19.40
2022-10-17T00:15:03.745Z,19.11
2022-10-17T00:16:03.760Z,19.11
2022-10-17T00:17:03.791Z,19.01
2022-10-17T00:18:03.825Z,19.21
2022-10-17T00:19:03.858Z,19.11
2022-10-17T00:20:03.891Z,19.21
2022-10-17T00:21:03.933Z,19.21
2022-10-17T00:22:03.970Z,19.50
2022-10-17T00:23:03.990Z,19.31
2022-10-17T00:24:04.024Z,19.21
2022-10-17T00:25:04.061Z,19.40
2022-10-17T00:26:04.094Z,19.11
2022-10-17T00:27:04.124Z,19.31
2022-10-17T00:28:04.185Z,19.39
2022-10-17T00:29:04.289Z,19.29
2022-10-17T00:30:04.230Z,19.40
2022-10-17T00:31:04.257Z,19.31
2022-10-17T00:32:04.293Z,19.40
2022-10-17T00:33:04.329Z,19.39
2022-10-17T00:34:04.362Z,19.11
2022-10-17T00:35:04.390Z,19.21
2022-10-17T00:36:04.424Z,19.11
2022-10-17T00:37:04.458Z,18.82
2022-10-17T00:38:04.500Z,18.90
2022-10-17T00:39:04.536Z,19.11
2022-10-17T00:40:04.560Z,19.01
2022-10-17T00:41:04.607Z,19.00
2022-10-17T00:42:04.625Z,18.91
2022-10-17T00:43:04.658Z,18.91
2022-10-17T00:44:04.716Z,19.01
2022-10-17T00:45:04.724Z,19.01
2022-10-17T00:46:04.768Z,19.10
2022-10-17T00:47:04.792Z,19.11
2022-10-17T00:48:04.825Z,19.01
2022-10-17T00:49:04.858Z,19.11
2022-10-17T00:50:04.893Z,19.01
2022-10-17T00:51:04.924Z,19.00
2022-10-17T00:52:04.960Z,19.10
2022-10-17T00:53:04.991Z,19.21
2022-10-17T00:54:05.032Z,19.21
2022-10-17T00:55:05.059Z,19.01
2022-10-17T00:56:05.092Z,19.01
2022-10-17T00:57:05.127Z,18.91
2022-10-17T00:58:05.158Z,18.72
2022-10-17T01:00:05.250Z,18.62
2022-10-17T01:01:05.326Z,18.91
2022-10-17T01:02:05.291Z,18.91
2022-10-17T01:03:05.324Z,18.91
2022-10-17T01:04:05.357Z,18.82
2022-10-17T01:05:05.395Z,18.72
2022-10-17T01:06:05.425Z,18.72
2022-10-17T01:07:05.458Z,18.82
2022-10-17T01:08:05.491Z,18.72
2022-10-17T01:09:05.524Z,18.91
2022-10-17T01:10:05.561Z,18.72
2022-10-17T01:11:05.593Z,18.72
2022-10-17T01:12:05.625Z,18.82
2022-10-17T01:13:05.658Z,18.72
2022-10-17T01:14:05.692Z,18.71
2022-10-17T01:15:05.725Z,18.72
2022-10-17T01:16:05.782Z,18.80
2022-10-17T01:17:05.793Z,18.71
2022-10-17T01:18:05.825Z,18.82
2022-10-17T01:19:05.860Z,18.82
2022-10-17T01:20:05.898Z,18.82
2022-10-17T01:21:05.925Z,18.72
2022-10-17T01:22:05.959Z,18.62
2022-10-17T01:23:05.991Z,18.72
2022-10-17T01:24:06.026Z,18.72
2022-10-17T01:25:06.058Z,18.82
2022-10-17T01:26:06.093Z,18.82
2022-10-17T01:27:06.126Z,18.71
2022-10-17T01:28:06.159Z,18.91
2022-10-17T01:29:06.192Z,18.72
2022-10-17T01:30:06.225Z,18.72
2022-10-17T01:31:06.258Z,18.82
2022-10-17T01:32:06.315Z,18.82
2022-10-17T01:33:06.325Z,18.90
2022-10-17T01:34:06.361Z,19.01
2022-10-17T01:35:06.391Z,18.82
2022-10-17T01:36:06.424Z,19.00
2022-10-17T01:37:06.561Z,19.01
2022-10-17T01:38:06.492Z,18.91
2022-10-17T01:39:06.525Z,19.01
2022-10-17T01:40:06.558Z,18.91
2022-10-17T01:41:06.592Z,19.11
2022-10-17T01:42:06.629Z,19.00
2022-10-17T01:43:06.658Z,19.01
2022-10-17T01:44:06.692Z,18.91
2022-10-17T01:45:06.731Z,19.01
2022-10-17T01:46:06.758Z,18.91
2022-10-17T01:47:06.791Z,19.01
2022-10-17T01:48:06.852Z,19.01
2022-10-17T01:49:06.858Z,18.91
2022-10-17T01:50:06.896Z,19.01
2022-10-17T01:51:06.926Z,19.01
2022-10-17T01:52:06.958Z,18.91
2022-10-17T01:53:06.993Z,18.82
2022-10-17T01:54:07.026Z,18.82
2022-10-17T01:55:07.058Z,18.82
2022-10-17T01:56:07.093Z,18.82
2022-10-17T01:57:07.126Z,18.82
2022-10-17T01:58:07.162Z,18.82
2022-10-17T01:59:07.191Z,18.72
2022-10-17T02:00:07.226Z,18.82
2022-10-17T02:01:07.292Z,18.82
2022-10-17T02:02:07.292Z,18.62
2022-10-17T02:03:07.325Z,18.72
2022-10-17T02:04:07.383Z,18.72
2022-10-17T02:05:07.393Z,18.72
2022-10-17T02:06:07.447Z,18.72
2022-10-17T02:07:07.458Z,18.72
2022-10-17T02:08:07.491Z,18.82
2022-10-17T02:09:07.526Z,18.82
2022-10-17T02:10:07.560Z,18.72
2022-10-17T02:11:07.591Z,18.82
2022-10-17T02:12:07.625Z,18.82
2022-10-17T02:13:07.663Z,18.82
2022-10-17T02:14:07.736Z,18.72
2022-10-17T02:15:07.725Z,18.82
2022-10-17T02:16:07.759Z,18.72
2022-10-17T02:17:07.793Z,18.82
2022-10-17T02:18:07.828Z,18.72
2022-10-17T02:19:07.868Z,18.82
2022-10-17T02:20:07.917Z,18.82
2022-10-17T02:21:07.926Z,18.72
2022-10-17T02:22:07.961Z,18.72
2022-10-17T02:23:08.049Z,18.72
2022-10-17T02:24:08.025Z,18.72
2022-10-17T02:25:08.068Z,18.62
2022-10-17T02:26:08.092Z,18.82
2022-10-17T02:27:08.128Z,18.82
2022-10-17T02:28:08.159Z,18.82
2022-10-17T02:29:08.193Z,18.82
2022-10-17T02:30:08.227Z,18.82
2022-10-17T02:31:08.259Z,18.91
2022-10-17T02:32:08.343Z,18.82
2022-10-17T02:33:08.327Z,18.91
2022-10-17T02:34:08.360Z,19.01
2022-10-17T02:35:08.392Z,18.91
2022-10-17T02:36:08.449Z,18.91
2022-10-17T02:37:08.461Z,18.91
2022-10-17T02:38:08.495Z,18.91
2022-10-17T02:39:08.528Z,18.91
2022-10-17T02:40:08.560Z,18.91
2022-10-17T02:41:08.594Z,18.43
2022-10-17T02:42:08.629Z,18.43
2022-10-17T02:43:08.658Z,18.72
2022-10-17T02:44:08.695Z,18.62
2022-10-17T02:45:08.729Z,18.52
2022-10-17T02:46:08.759Z,18.52
2022-10-17T02:47:08.792Z,18.43
2022-10-17T02:48:08.825Z,19.21
2022-10-17T02:49:08.859Z,18.43
2022-10-17T02:50:08.897Z,18.91
2022-10-17T02:51:08.925Z,18.91
2022-10-17T02:52:08.984Z,18.72
2022-10-17T02:53:08.994Z,18.62
2022-10-17T02:54:09.032Z,18.82
2022-10-17T02:55:09.061Z,18.72
2022-10-17T02:56:09.094Z,18.62
2022-10-17T02:57:09.127Z,18.62
2022-10-17T02:58:09.160Z,19.01
2022-10-17T02:59:09.193Z,19.01
2022-10-17T03:00:09.227Z,18.72
2022-10-17T03:01:09.358Z,18.72
2022-10-17T03:02:09.293Z,18.52
2022-10-17T03:03:09.326Z,18.52
2022-10-17T03:04:09.360Z,18.43
2022-10-17T03:05:09.395Z,18.52
2022-10-17T03:06:09.428Z,18.52
2022-10-17T03:07:09.459Z,18.43
2022-10-17T03:08:09.522Z,18.43
2022-10-17T03:09:09.528Z,18.52
2022-10-17T03:10:09.563Z,18.52
2022-10-17T03:11:09.593Z,18.72
2022-10-17T03:12:09.627Z,18.43
2022-10-17T03:13:09.664Z,18.43
2022-10-17T03:14:09.694Z,18.52
2022-10-17T03:15:09.726Z,18.33
2022-10-17T03:16:09.759Z,18.33
2022-10-17T03:17:09.793Z,18.23
2022-10-17T03:18:09.828Z,18.43
2022-10-17T03:19:09.860Z,18.43
2022-10-17T03:20:09.898Z,18.23
2022-10-17T03:21:09.928Z,18.23
2022-10-17T03:22:09.962Z,18.33
2022-10-17T03:23:09.994Z,18.33
2022-10-17T03:24:10.050Z,18.23
2022-10-17T03:25:10.061Z,18.33
2022-10-17T03:26:10.093Z,18.04
2022-10-17T03:27:10.126Z,17.93
2022-10-17T03:28:10.161Z,18.13
2022-10-17T03:29:10.229Z,18.13
2022-10-17T03:30:10.227Z,18.13
2022-10-17T03:31:10.259Z,18.04
2022-10-17T03:32:10.294Z,18.04
2022-10-17T03:33:10.326Z,17.83
2022-10-17T03:34:10.360Z,17.65
2022-10-17T03:35:14.813Z,18.04
2022-10-17T03:36:10.426Z,17.74
2022-10-17T03:37:10.460Z,17.74
2022-10-17T03:38:10.495Z,17.74
2022-10-17T03:39:10.527Z,17.65
2022-10-17T03:40:10.585Z,17.74
2022-10-17T03:41:10.594Z,17.74
2022-10-17T03:42:10.628Z,17.74
2022-10-17T03:43:10.659Z,17.74
2022-10-17T03:44:10.693Z,17.84
2022-10-17T03:45:10.727Z,17.94
2022-10-17T03:46:10.806Z,18.13
2022-10-17T03:47:13.450Z,17.84
2022-10-17T03:48:10.828Z,17.84
2022-10-17T03:49:10.860Z,17.74
2022-10-17T03:50:10.900Z,17.74
2022-10-17T03:51:10.927Z,17.55
2022-10-17T03:52:10.959Z,17.65
2022-10-17T03:53:10.994Z,17.55
2022-10-17T03:54:11.028Z,17.45
2022-10-17T03:55:11.060Z,17.25
2022-10-17T03:56:11.119Z,17.35
2022-10-17T03:57:11.127Z,17.45
2022-10-17T03:58:11.162Z,17.35
2022-10-17T03:59:11.194Z,17.65
2022-10-17T04:00:11.228Z,17.65
2022-10-17T04:01:11.369Z,17.35
2022-10-17T04:02:11.294Z,17.35
2022-10-17T04:03:16.296Z,16.86
2022-10-17T04:04:11.364Z,16.96
2022-10-17T04:05:11.396Z,17.25
2022-10-17T04:06:11.427Z,17.16
2022-10-17T04:07:11.461Z,16.96
2022-10-17T04:08:11.495Z,17.35
2022-10-17T04:09:11.527Z,17.35
2022-10-17T04:10:11.574Z,17.54
2022-10-17T04:11:11.594Z,17.16
2022-10-17T04:12:11.657Z,17.06
2022-10-17T04:13:11.660Z,17.16
2022-10-17T04:14:11.698Z,17.16
2022-10-17T04:15:11.729Z,17.35
2022-10-17T04:16:11.760Z,17.25
2022-10-17T04:17:11.794Z,16.86
2022-10-17T04:18:11.829Z,17.25
2022-10-17T04:19:11.869Z,17.16
2022-10-17T04:20:11.894Z,17.06
2022-10-17T04:21:11.929Z,17.16
2022-10-17T04:22:11.961Z,17.16
2022-10-17T04:23:11.995Z,16.67
2022-10-17T04:24:12.026Z,16.77
2022-10-17T04:25:12.061Z,16.67
2022-10-17T04:26:12.097Z,16.77
2022-10-17T04:27:12.126Z,17.06
2022-10-17T04:28:12.184Z,16.86
2022-10-17T04:29:12.197Z,16.96
2022-10-17T04:30:12.227Z,16.67
2022-10-17T04:31:12.261Z,16.77
2022-10-17T04:32:12.296Z,16.77
2022-10-17T04:33:12.328Z,16.47
2022-10-17T04:34:12.361Z,16.58
2022-10-17T04:35:12.394Z,16.67
2022-10-17T04:36:12.427Z,16.67
2022-10-17T04:37:12.461Z,16.77
2022-10-17T04:38:12.495Z,16.77
2022-10-17T04:40:12.572Z,16.38
2022-10-17T04:41:12.594Z,16.28
2022-10-17T04:42:12.629Z,16.37
2022-10-17T04:43:12.660Z,16.28
2022-10-17T04:44:12.720Z,16.38
2022-10-17T04:45:12.745Z,16.28
2022-10-17T04:46:12.769Z,16.28
2022-10-17T04:47:12.793Z,16.48
2022-10-17T04:48:12.826Z,16.28
2022-10-17T04:49:12.861Z,16.19
2022-10-17T04:50:12.895Z,16.19
2022-10-17T04:51:12.932Z,16.38
2022-10-17T04:52:12.961Z,16.38
2022-10-17T04:53:12.993Z,16.38
2022-10-17T04:54:13.027Z,16.28
2022-10-17T04:55:13.062Z,16.19
2022-10-17T04:56:13.094Z,16.38
2022-10-17T04:57:13.128Z,16.19
2022-10-17T04:58:13.160Z,16.17
2022-10-17T04:59:13.194Z,16.17
2022-10-17T05:00:13.255Z,16.09
2022-10-17T05:01:13.337Z,16.09
2022-10-17T05:02:13.294Z,16.28
2022-10-17T05:03:13.327Z,16.09
2022-10-17T05:04:13.360Z,16.09
2022-10-17T05:05:13.393Z,16.08
2022-10-17T05:06:13.429Z,15.89
2022-10-17T05:07:13.461Z,16.09
2022-10-17T05:08:13.494Z,15.89
2022-10-17T05:09:13.528Z,15.99
2022-10-17T05:10:13.562Z,15.89
2022-10-17T05:11:13.595Z,15.89
2022-10-17T05:12:13.643Z,15.89
2022-10-17T05:13:13.663Z,15.50
2022-10-17T05:14:13.698Z,15.89
2022-10-17T05:15:13.727Z,15.80
2022-10-17T05:16:13.783Z,15.80
2022-10-17T05:17:13.793Z,15.80
2022-10-17T05:18:13.827Z,15.70
2022-10-17T05:19:13.860Z,15.30
2022-10-17T05:20:13.893Z,15.60
2022-10-17T05:21:13.928Z,15.41
2022-10-17T05:22:13.960Z,15.50
2022-10-17T05:23:13.994Z,15.50
2022-10-17T05:24:14.028Z,15.50
2022-10-17T05:25:14.063Z,15.50
2022-10-17T05:26:14.093Z,15.50
2022-10-17T05:27:14.126Z,15.70
2022-10-17T05:28:14.161Z,15.70
2022-10-17T05:29:14.196Z,15.80
2022-10-17T05:30:14.227Z,15.70
2022-10-17T05:31:14.260Z,15.41
2022-10-17T05:32:14.317Z,15.41
2022-10-17T05:33:14.327Z,15.50
2022-10-17T05:34:14.361Z,15.01
2022-10-17T05:35:14.393Z,15.01
2022-10-17T05:36:14.433Z,15.11
2022-10-17T05:37:14.461Z,15.11
2022-10-17T05:38:14.494Z,15.11
2022-10-17T05:39:14.530Z,15.21
2022-10-17T05:40:14.561Z,15.21
2022-10-17T05:41:14.593Z,15.21
2022-10-17T05:42:14.628Z,15.41
2022-10-17T05:43:14.663Z,15.11
2022-10-17T05:44:14.694Z,15.01
2022-10-17T05:45:14.727Z,15.41
2022-10-17T05:46:14.762Z,15.31
2022-10-17T05:47:14.793Z,15.11
2022-10-17T05:48:14.851Z,15.01
2022-10-17T05:49:31.910Z,14.92
2022-10-17T05:50:14.895Z,15.11
2022-10-17T05:51:14.945Z,15.30
2022-10-17T05:52:14.959Z,14.82
2022-10-17T05:53:14.993Z,14.82
2022-10-17T05:54:15.028Z,15.01
2022-10-17T05:55:15.061Z,15.01
2022-10-17T05:56:15.092Z,15.01
2022-10-17T05:57:15.128Z,14.92
2022-10-17T05:58:22.021Z,15.01
2022-10-17T05:59:15.194Z,14.82
2022-10-17T06:00:15.225Z,14.82
2022-10-17T06:01:15.260Z,14.82
2022-10-17T06:02:15.363Z,14.91
2022-10-17T06:03:15.327Z,14.92
2022-10-17T06:04:15.384Z,14.92
2022-10-17T06:05:15.393Z,15.11
2022-10-17T06:06:15.427Z,14.81
2022-10-17T06:07:15.460Z,15.01
2022-10-17T06:08:15.495Z,14.92
2022-10-17T06:09:15.527Z,15.11
2022-10-17T06:10:15.561Z,14.82
2022-10-17T06:11:15.593Z,15.11
2022-10-17T06:12:15.626Z,15.01
2022-10-17T06:13:15.663Z,14.92
2022-10-17T06:14:15.697Z,15.01
2022-10-17T06:15:15.725Z,15.01
2022-10-17T06:16:15.760Z,15.01
2022-10-17T06:17:16.485Z,15.11
2022-10-17T06:18:15.827Z,15.11
2022-10-17T06:19:15.859Z,15.01
2022-10-17T06:20:15.921Z,15.11
2022-10-17T06:21:15.930Z,15.01
2022-10-17T06:22:15.960Z,14.72
2022-10-17T06:23:15.992Z,15.01
2022-10-17T06:24:16.027Z,15.01
2022-10-17T06:25:16.059Z,14.82
2022-10-17T06:26:16.094Z,14.82
2022-10-17T06:27:16.125Z,14.72
2022-10-17T06:28:16.160Z,15.01
2022-10-17T06:29:16.193Z,15.11
2022-10-17T06:30:16.226Z,15.11
2022-10-17T06:31:16.258Z,14.81
2022-10-17T06:32:16.296Z,15.01
2022-10-17T06:33:16.326Z,14.81
2022-10-17T06:34:16.359Z,14.92
2022-10-17T06:35:16.392Z,15.01
2022-10-17T06:36:16.452Z,15.01
2022-10-17T06:37:16.459Z,15.01
2022-10-17T06:38:16.493Z,15.01
2022-10-17T06:39:16.529Z,14.82
2022-10-17T06:40:16.561Z,15.01
2022-10-17T06:41:16.593Z,14.91
2022-10-17T06:42:16.632Z,14.92
2022-10-17T06:43:16.658Z,14.82
2022-10-17T06:44:16.694Z,15.21
2022-10-17T06:45:16.731Z,15.11
2022-10-17T06:46:16.759Z,14.92
2022-10-17T06:47:19.919Z,14.82
2022-10-17T06:48:16.825Z,14.82
2022-10-17T06:49:16.864Z,15.11
2022-10-17T06:50:16.893Z,15.21
2022-10-17T06:51:16.928Z,15.11
2022-10-17T06:52:16.987Z,15.01
2022-10-17T06:53:16.995Z,15.21
2022-10-17T06:54:17.027Z,15.21
2022-10-17T06:55:21.331Z,15.41
2022-10-17T06:56:17.096Z,15.41
2022-10-17T06:57:17.127Z,15.50
2022-10-17T06:58:17.159Z,15.20
2022-10-17T06:59:17.192Z,15.11
2022-10-17T07:00:17.225Z,15.21
2022-10-17T07:01:17.380Z,15.01
2022-10-17T07:02:17.293Z,15.01
2022-10-17T07:03:17.328Z,15.01
2022-10-17T07:04:17.358Z,15.11
2022-10-17T07:05:17.394Z,15.11
2022-10-17T07:06:17.427Z,15.01
2022-10-17T07:07:17.478Z,15.11
2022-10-17T07:08:17.518Z,15.21
2022-10-17T07:09:17.529Z,15.11
2022-10-17T07:10:17.559Z,14.92
2022-10-17T07:11:17.687Z,15.01
2022-10-17T07:12:17.626Z,14.92
2022-10-17T07:13:17.661Z,15.11
2022-10-17T07:14:17.701Z,15.01
2022-10-17T07:15:17.727Z,15.01
2022-10-17T07:16:17.759Z,15.01
2022-10-17T07:17:17.793Z,15.60
2022-10-17T07:18:17.826Z,15.50
2022-10-17T07:19:17.863Z,15.50
2022-10-17T07:20:17.891Z,15.41
2022-10-17T07:21:17.927Z,15.41
2022-10-17T07:22:17.958Z,15.40
2022-10-17T07:23:17.991Z,15.41
2022-10-17T07:24:18.064Z,15.41
2022-10-17T07:25:18.060Z,15.60
2022-10-17T07:26:18.094Z,15.50
2022-10-17T07:27:18.125Z,15.70
2022-10-17T07:28:18.160Z,15.50
2022-10-17T07:29:18.192Z,15.69
2022-10-17T07:30:18.225Z,15.60
2022-10-17T07:31:18.258Z,15.70
2022-10-17T07:32:18.291Z,15.70
2022-10-17T07:33:18.326Z,15.80
2022-10-17T07:34:18.360Z,15.70
2022-10-17T07:35:18.392Z,15.50
2022-10-17T07:36:18.425Z,15.50
2022-10-17T07:37:18.459Z,15.50
2022-10-17T07:38:18.492Z,15.50
2022-10-17T07:39:18.530Z,15.50
2022-10-17T07:40:18.581Z,15.50
2022-10-17T07:41:20.960Z,15.50
2022-10-17T07:42:18.625Z,15.50
2022-10-17T07:43:18.662Z,15.50
2022-10-17T07:44:18.700Z,15.60
2022-10-17T07:45:18.725Z,15.60
2022-10-17T07:46:18.759Z,15.41
2022-10-17T07:47:18.790Z,15.50
2022-10-17T07:48:18.824Z,15.60
2022-10-17T07:49:18.858Z,15.70
2022-10-17T07:50:18.892Z,15.80
2022-10-17T07:51:18.924Z,15.70
2022-10-17T07:52:18.958Z,15.70
2022-10-17T07:53:18.991Z,15.80
2022-10-17T07:54:19.025Z,15.80
2022-10-17T07:55:19.062Z,15.60
2022-10-17T07:56:19.120Z,15.99
2022-10-17T07:57:19.129Z,15.99
2022-10-17T07:58:19.158Z,15.99
2022-10-17T07:59:19.195Z,16.09
2022-10-17T08:00:19.225Z,15.99
2022-10-17T08:01:19.259Z,15.89
2022-10-17T08:02:19.291Z,15.89
2022-10-17T08:03:19.324Z,15.99
2022-10-17T08:04:19.358Z,15.70
2022-10-17T08:05:19.393Z,15.80
2022-10-17T08:06:19.432Z,15.89
2022-10-17T08:07:23.016Z,15.99
2022-10-17T08:08:19.490Z,16.19
2022-10-17T08:09:19.527Z,16.09
2022-10-17T08:10:19.558Z,16.28
2022-10-17T08:11:19.600Z,16.19
2022-10-17T08:12:19.650Z,15.99
2022-10-17T08:13:19.660Z,16.09
2022-10-17T08:14:19.710Z,16.09
2022-10-17T08:15:19.742Z,16.19
2022-10-17T08:16:19.759Z,16.28
2022-10-17T08:17:19.792Z,16.09
2022-10-17T08:18:19.827Z,16.19
2022-10-17T08:19:19.857Z,16.19
2022-10-17T08:20:19.891Z,16.38
2022-10-17T08:21:19.924Z,16.28
2022-10-17T08:22:19.961Z,16.38
2022-10-17T08:23:19.991Z,16.38
2022-10-17T08:24:20.025Z,16.48
2022-10-17T08:25:20.057Z,16.28
2022-10-17T08:26:20.117Z,16.28
2022-10-17T08:27:20.125Z,16.38
2022-10-17T08:28:20.183Z,16.19
2022-10-17T08:29:20.191Z,16.28
2022-10-17T08:30:20.224Z,16.38
2022-10-17T08:31:20.257Z,16.48
2022-10-17T08:32:20.291Z,16.19
2022-10-17T08:33:20.327Z,16.28
2022-10-17T08:34:20.359Z,16.28
2022-10-17T08:35:20.392Z,16.38
2022-10-17T08:36:20.427Z,16.19
2022-10-17T08:37:20.458Z,16.38
2022-10-17T08:38:21.116Z,16.38
2022-10-17T08:39:20.523Z,16.28
2022-10-17T08:40:20.559Z,16.38
2022-10-17T08:41:20.594Z,16.58
2022-10-17T08:42:20.624Z,16.58
2022-10-17T08:43:20.657Z,16.58
2022-10-17T08:44:20.714Z,16.77
2022-10-17T08:45:20.724Z,16.77
2022-10-17T08:46:20.817Z,16.77
2022-10-17T08:47:20.791Z,16.86
2022-10-17T08:48:20.824Z,16.67
2022-10-17T08:49:20.857Z,16.58
2022-10-17T08:50:20.893Z,16.86
2022-10-17T08:51:20.923Z,16.67
2022-10-17T08:52:20.958Z,16.67
2022-10-17T08:53:20.993Z,16.48
2022-10-17T08:54:21.025Z,16.48
2022-10-17T08:55:21.062Z,16.38
2022-10-17T08:56:25.155Z,16.77
2022-10-17T08:57:21.125Z,16.58
2022-10-17T08:58:21.159Z,16.67
2022-10-17T08:59:21.191Z,16.96
2022-10-17T09:00:21.256Z,16.86
2022-10-17T09:01:21.258Z,16.77
2022-10-17T09:02:21.291Z,16.96
2022-10-17T09:03:21.404Z,16.86
2022-10-17T09:04:21.533Z,16.96
2022-10-17T09:05:24.017Z,16.96
2022-10-17T09:06:21.424Z,16.96
2022-10-17T09:07:21.457Z,16.96
2022-10-17T09:08:21.491Z,17.06
2022-10-17T09:09:21.525Z,17.06
2022-10-17T09:10:21.557Z,17.06
2022-10-17T09:11:21.590Z,16.96
2022-10-17T09:12:21.630Z,17.06
2022-10-17T09:13:21.661Z,16.86
2022-10-17T09:14:21.694Z,16.77
2022-10-17T09:15:21.726Z,16.77
2022-10-17T09:16:21.782Z,16.67
2022-10-17T09:17:21.791Z,16.86
2022-10-17T09:18:22.202Z,16.77
2022-10-17T09:19:21.859Z,16.77
2022-10-17T09:20:21.892Z,16.77
2022-10-17T09:21:21.925Z,16.77
2022-10-17T09:22:21.961Z,16.67
2022-10-17T09:23:21.992Z,16.77
2022-10-17T09:24:22.023Z,16.77
2022-10-17T09:25:22.057Z,16.67
2022-10-17T09:26:22.092Z,16.77
2022-10-17T09:27:22.126Z,16.77
2022-10-17T09:28:22.231Z,16.67
2022-10-17T09:29:22.194Z,16.77
2022-10-17T09:30:40.502Z,16.77
2022-10-17T09:31:22.278Z,16.67
2022-10-17T09:32:22.318Z,16.77
2022-10-17T09:33:34.765Z,16.77
2022-10-17T09:34:25.236Z,16.86
2022-10-17T09:35:22.390Z,16.86
2022-10-17T09:36:22.423Z,16.86
2022-10-17T09:37:22.457Z,16.86
2022-10-17T09:38:22.493Z,16.96
2022-10-17T09:39:22.523Z,16.86
2022-10-17T09:40:22.557Z,16.96
2022-10-17T09:42:22.626Z,16.96
2022-10-17T09:43:22.658Z,16.96
2022-10-17T09:44:22.696Z,16.96
2022-10-17T09:45:22.725Z,16.96
2022-10-17T09:46:22.758Z,16.86
2022-10-17T09:47:22.789Z,16.96
2022-10-17T09:48:22.850Z,16.96
2022-10-17T09:49:22.857Z,16.86
2022-10-17T09:50:22.891Z,16.96
2022-10-17T09:51:26.178Z,16.96
2022-10-17T09:52:22.957Z,16.86
2022-10-17T09:53:22.990Z,16.67
2022-10-17T09:54:23.024Z,16.67
2022-10-17T09:55:23.061Z,16.77
2022-10-17T09:56:23.092Z,16.67
2022-10-17T09:57:23.223Z,16.77
2022-10-17T09:58:23.157Z,16.67
2022-10-17T09:59:23.194Z,16.67
2022-10-17T10:00:23.430Z,16.77
2022-10-17T10:01:24.389Z,16.96
2022-10-17T10:02:23.294Z,16.96
2022-10-17T10:03:23.326Z,16.77
2022-10-17T10:04:23.382Z,16.86
2022-10-17T10:05:23.390Z,16.67
2022-10-17T10:06:23.425Z,16.58
2022-10-17T10:07:28.241Z,16.48
2022-10-17T10:08:23.490Z,16.67
2022-10-17T10:09:23.532Z,16.77
2022-10-17T10:10:23.558Z,16.77
2022-10-17T10:11:23.589Z,16.67
2022-10-17T10:12:23.625Z,16.86
2022-10-17T10:13:23.657Z,16.77
2022-10-17T10:14:23.691Z,16.77
2022-10-17T10:15:23.722Z,16.58
2022-10-17T10:16:23.757Z,16.67
2022-10-17T10:17:23.790Z,16.48
2022-10-17T10:18:23.863Z,16.48
2022-10-17T10:19:23.859Z,16.38
2022-10-17T10:20:23.916Z,16.48
2022-10-17T10:21:23.923Z,16.28
2022-10-17T10:22:23.956Z,16.38
2022-10-17T10:23:24.019Z,16.19
2022-10-17T10:24:26.960Z,16.09
2022-10-17T10:25:24.056Z,16.19
2022-10-17T10:26:24.091Z,16.28
2022-10-17T10:27:24.174Z,16.28
2022-10-17T10:28:24.176Z,16.28
2022-10-17T10:29:24.194Z,16.48
2022-10-17T10:30:24.223Z,16.28
2022-10-17T10:31:24.257Z,16.38
2022-10-17T10:32:24.289Z,16.38
2022-10-17T10:33:24.325Z,16.38
2022-10-17T10:34:24.359Z,16.38
2022-10-17T10:35:24.395Z,16.38
2022-10-17T10:36:24.528Z,16.19
2022-10-17T10:37:24.464Z,16.28
2022-10-17T10:38:24.490Z,16.19
2022-10-17T10:39:24.526Z,16.28
2022-10-17T10:40:24.560Z,16.19
2022-10-17T10:41:24.592Z,16.09
2022-10-17T10:42:24.626Z,15.99
2022-10-17T10:43:24.657Z,16.19
2022-10-17T10:44:24.691Z,16.09
2022-10-17T10:45:46.515Z,15.99
2022-10-17T10:46:24.756Z,16.19
2022-10-17T10:47:24.789Z,15.99
2022-10-17T10:48:24.823Z,15.89
2022-10-17T10:49:24.858Z,15.88
2022-10-17T10:50:24.893Z,15.80
2022-10-17T10:51:24.925Z,15.70
2022-10-17T10:52:24.981Z,15.99
2022-10-17T10:53:24.996Z,15.80
2022-10-17T10:54:25.029Z,15.89
2022-10-17T10:55:25.056Z,15.89
2022-10-17T10:56:25.093Z,15.89
2022-10-17T10:57:25.125Z,15.99
2022-10-17T10:58:25.158Z,16.09
2022-10-17T10:59:25.191Z,15.88
2022-10-17T11:00:25.285Z,16.09
2022-10-17T11:01:25.258Z,15.99
2022-10-17T11:02:25.290Z,15.89
2022-10-17T11:03:25.328Z,15.89
2022-10-17T11:04:25.361Z,15.98
2022-10-17T11:05:25.387Z,15.50
2022-10-17T11:06:25.423Z,15.70
2022-10-17T11:07:25.454Z,15.80
2022-10-17T11:08:25.514Z,15.70
2022-10-17T11:09:26.975Z,15.60
2022-10-17T11:10:25.559Z,15.70
2022-10-17T11:11:25.591Z,15.60
2022-10-17T11:12:25.625Z,15.50
2022-10-17T11:13:25.655Z,15.50
2022-10-17T11:14:25.689Z,15.50
2022-10-17T11:15:25.726Z,15.50
2022-10-17T11:16:25.755Z,15.60
2022-10-17T11:17:25.789Z,15.50
2022-10-17T11:18:25.821Z,15.80
2022-10-17T11:19:25.856Z,15.70
2022-10-17T11:20:25.891Z,15.80
2022-10-17T11:21:25.921Z,15.50
2022-10-17T11:22:28.296Z,15.50
2022-10-17T11:23:25.990Z,15.41
2022-10-17T11:24:26.048Z,15.60
2022-10-17T11:25:26.055Z,15.60
2022-10-17T11:26:26.090Z,14.92
2022-10-17T11:27:26.122Z,15.50
2022-10-17T11:28:26.225Z,14.92
2022-10-17T11:29:26.187Z,15.01
2022-10-17T11:30:26.224Z,15.31
2022-10-17T11:31:26.257Z,15.01
2022-10-17T11:32:26.685Z,15.41
2022-10-17T11:33:26.323Z,15.20
2022-10-17T11:34:26.355Z,15.11
2022-10-17T11:35:26.392Z,15.21
2022-10-17T11:36:26.426Z,15.21
2022-10-17T11:37:26.455Z,15.11
2022-10-17T11:38:26.488Z,15.01
2022-10-17T11:39:26.520Z,15.01
2022-10-17T11:40:26.579Z,14.92
2022-10-17T11:41:26.587Z,15.01
2022-10-17T11:42:27.052Z,15.11
2022-10-17T11:43:26.655Z,15.11
2022-10-17T11:44:26.767Z,15.01
2022-10-17T11:45:26.721Z,15.01
2022-10-17T11:46:26.839Z,15.21
2022-10-17T11:47:26.789Z,15.11
2022-10-17T11:48:26.821Z,15.21
2022-10-17T11:52:51.313Z,14.81
2022-10-17T11:53:26.988Z,14.92
2022-10-17T11:54:27.021Z,15.20
2022-10-17T11:55:27.056Z,15.11
2022-10-17T11:56:27.116Z,15.01
2022-10-17T11:57:27.120Z,15.01
2022-10-17T11:58:27.154Z,14.82
2022-10-17T11:59:27.191Z,14.72
2022-10-17T12:00:27.221Z,15.11
2022-10-17T12:01:27.256Z,15.01
2022-10-17T12:02:27.572Z,14.91
2022-10-17T12:03:27.320Z,15.21
2022-10-17T12:04:27.417Z,15.21
2022-10-17T12:05:27.387Z,15.01
2022-10-17T12:06:29.448Z,14.92
2022-10-17T12:07:27.829Z,14.92
2022-10-17T12:08:30.468Z,15.01
2022-10-17T12:09:27.523Z,15.21
2022-10-17T12:10:27.553Z,15.01
2022-10-17T12:11:27.585Z,15.01
2022-10-17T12:12:28.119Z,15.01
2022-10-17T12:13:27.652Z,15.21
2022-10-17T12:14:27.690Z,14.92
2022-10-17T12:15:27.719Z,14.72
2022-10-17T12:16:27.766Z,14.72
2022-10-17T12:17:28.278Z,14.92
2022-10-17T12:18:27.820Z,14.62
2022-10-17T12:19:27.852Z,14.72
2022-10-17T12:20:27.886Z,14.72
2022-10-17T12:21:31.315Z,14.62
2022-10-17T12:22:27.953Z,15.01
2022-10-17T12:23:27.990Z,14.72
2022-10-17T12:24:28.657Z,15.01
2022-10-17T12:25:28.088Z,15.11
2022-10-17T12:26:28.093Z,14.92
2022-10-17T12:27:28.481Z,15.21
2022-10-17T12:28:28.249Z,15.01
2022-10-17T12:29:28.186Z,14.82
2022-10-17T12:30:28.220Z,15.01
2022-10-17T12:31:33.646Z,14.82
2022-10-17T12:32:36.860Z,14.82
2022-10-17T12:33:28.318Z,14.62
2022-10-17T12:34:28.353Z,14.62
2022-10-17T12:35:28.385Z,14.72
2022-10-17T12:36:28.420Z,14.72
2022-10-17T12:37:28.639Z,14.62
2022-10-17T12:38:28.484Z,14.62
2022-10-17T12:39:28.519Z,14.82
2022-10-17T12:40:28.551Z,14.72
2022-10-17T12:41:28.584Z,14.23
2022-10-17T12:42:28.945Z,14.23
2022-10-17T12:43:28.735Z,14.82
2022-10-17T12:44:31.004Z,14.72
2022-10-17T12:45:28.718Z,14.33
2022-10-17T12:46:28.751Z,14.23
2022-10-17T12:47:29.094Z,14.33
2022-10-17T12:48:28.818Z,14.82
2022-10-17T12:49:28.852Z,14.33
2022-10-17T12:50:28.884Z,14.92
2022-10-17T12:51:37.538Z,14.23
2022-10-17T12:52:28.950Z,14.82
2022-10-17T12:53:28.985Z,14.23
2022-10-17T12:54:31.411Z,14.53
2022-10-17T12:55:29.050Z,14.53
2022-10-17T12:56:29.086Z,14.53
2022-10-17T12:57:29.462Z,14.23
2022-10-17T12:58:29.152Z,14.23